Time;durP1;ratioP1;P1;durP2;ratioP2;P2;SDS_P1;SDS_P2;PMS_P1;PMS_P2;Temp;Humidity;BMP_temperature;BMP_pressure;BME280_temperature;BME280_humidity;BME280_pressure;Samples;Min_cycle;Max_cycle;Signal;HPM_P1;HPM_P2
2023/09/04 00:01:37;;;;;;;8.93;3.50;;;17.90;99.90;;;;;;5090928;28;20427;-70
2023/09/04 00:04:03;;;;;;;3.13;2.93;;;17.90;99.90;;;;;;5088860;28;20186;-71
2023/09/04 00:06:30;;;;;;;3.03;2.73;;;17.90;99.90;;;;;;5090659;28;20202;-70
2023/09/04 00:08:57;;;;;;;5.77;2.73;;;18.00;99.90;;;;;;5089126;28;20427;-70
2023/09/04 00:11:25;;;;;;;2.80;2.60;;;18.00;99.90;;;;;;5090626;28;20424;-70
2023/09/04 00:13:51;;;;;;;3.20;2.70;;;18.00;99.90;;;;;;5089431;28;20522;-70
2023/09/04 00:16:17;;;;;;;7.10;2.60;;;18.10;99.90;;;;;;5089132;28;21014;-70
2023/09/04 00:18:42;;;;;;;2.40;2.20;;;18.00;99.90;;;;;;5089453;28;20185;-70
2023/09/04 00:21:08;;;;;;;2.40;2.20;;;17.80;99.90;;;;;;5089119;28;20606;-71
2023/09/04 00:23:33;;;;;;;2.70;2.50;;;17.60;99.90;;;;;;5090656;28;20269;-71
2023/09/04 00:25:59;;;;;;;5.30;2.57;;;17.40;99.90;;;;;;5089042;28;20635;-71
2023/09/04 00:28:25;;;;;;;3.93;3.23;;;17.20;99.90;;;;;;5090350;28;20217;-71
2023/09/04 00:30:51;;;;;;;3.20;2.90;;;17.30;99.90;;;;;;5089102;28;20678;-71
2023/09/04 00:33:17;;;;;;;3.30;2.77;;;17.40;99.90;;;;;;5090601;28;20510;-71
2023/09/04 00:35:42;;;;;;;3.70;2.87;;;17.40;99.90;;;;;;5088814;28;20245;-71
2023/09/04 00:38:08;;;;;;;4.47;3.10;;;17.40;99.90;;;;;;5090596;28;20217;-71
2023/09/04 00:40:33;;;;;;;4.63;2.90;;;17.30;99.90;;;;;;5088824;28;20263;-71
2023/09/04 00:42:59;;;;;;;2.80;2.60;;;17.20;99.90;;;;;;5090261;28;20193;-70
2023/09/04 00:45:25;;;;;;;3.10;2.80;;;17.10;99.90;;;;;;5090112;28;20197;-71
2023/09/04 00:47:51;;;;;;;2.93;2.63;;;16.90;99.90;;;;;;5090237;28;20732;-71
2023/09/04 00:50:21;;;;;;;3.37;3.07;;;16.80;99.90;;;;;;5090258;28;20265;-71
2023/09/04 00:52:49;;;;;;;4.90;2.70;;;16.80;99.90;;;;;;5090160;28;20411;-71
2023/09/04 00:55:15;;;;;;;3.30;3.00;;;16.70;99.90;;;;;;5089786;28;20878;-71
2023/09/04 00:57:43;;;;;;;4.30;3.23;;;16.70;99.90;;;;;;5090147;28;20458;-71
2023/09/04 01:00:12;;;;;;;3.50;2.83;;;16.60;99.90;;;;;;5090207;28;20199;-71
2023/09/04 01:02:39;;;;;;;4.83;3.00;;;16.50;99.90;;;;;;5089957;28;20428;-70
2023/09/04 01:05:05;;;;;;;3.50;2.93;;;16.40;99.90;;;;;;5089666;28;20439;-70
2023/09/04 01:07:32;;;;;;;3.13;2.70;;;16.30;99.90;;;;;;5071437;28;20515;-71
2023/09/04 01:09:59;;;;;;;11.63;3.67;;;16.20;99.90;;;;;;5088435;28;20455;-71
2023/09/04 01:12:34;;;;;;;3.17;2.87;;;16.10;99.90;;;;;;5088352;28;20419;-71
2023/09/04 01:15:02;;;;;;;3.23;2.93;;;16.10;99.90;;;;;;5088891;28;20522;-70
2023/09/04 01:17:29;;;;;;;3.90;3.33;;;16.10;99.90;;;;;;5088298;28;20454;-70
2023/09/04 01:19:55;;;;;;;3.50;3.10;;;16.10;99.90;;;;;;5089890;28;20459;-70
2023/09/04 01:22:20;;;;;;;3.57;3.27;;;16.00;99.90;;;;;;5089889;28;20447;-69
2023/09/04 01:24:46;;;;;;;3.70;3.40;;;16.00;99.90;;;;;;5090130;28;20261;-69
2023/09/04 01:27:29;;;;;;;4.57;3.60;;;16.00;99.90;;;;;;5090104;28;20207;-70
2023/09/04 01:30:07;;;;;;;10.10;3.57;;;16.00;99.90;;;;;;5071754;28;20511;-69
2023/09/04 01:32:48;;;;;;;4.70;3.00;;;16.00;99.90;;;;;;5090012;28;20443;-69
2023/09/04 01:35:16;;;;;;;3.90;3.60;;;15.90;99.90;;;;;;5089964;28;20442;-70
2023/09/04 01:37:42;;;;;;;4.07;2.70;;;15.90;99.90;;;;;;5089932;28;20783;-70
2023/09/04 01:40:08;;;;;;;3.67;3.20;;;15.90;99.90;;;;;;5089659;28;20415;-72
2023/09/04 01:42:36;;;;;;;4.23;2.90;;;15.80;99.90;;;;;;5089456;28;20189;-69
2023/09/04 01:45:02;;;;;;;5.00;3.17;;;15.80;99.90;;;;;;5089338;28;20703;-71
2023/09/04 01:47:30;;;;;;;4.53;3.00;;;15.70;99.90;;;;;;5088112;28;20466;-71
2023/09/04 01:49:56;;;;;;;3.03;2.73;;;15.70;99.90;;;;;;5088324;28;20217;-71
2023/09/04 01:52:22;;;;;;;5.40;3.53;;;15.80;99.90;;;;;;5088241;28;20500;-71
2023/09/04 01:54:47;;;;;;;4.93;3.80;;;15.70;99.90;;;;;;5089134;28;20508;-71
2023/09/04 01:57:13;;;;;;;3.90;3.27;;;15.60;99.90;;;;;;5089076;28;20197;-71
2023/09/04 01:59:39;;;;;;;3.60;3.17;;;15.60;99.90;;;;;;5089196;28;20223;-71
2023/09/04 02:02:04;;;;;;;5.60;3.43;;;15.50;99.90;;;;;;5071167;28;20269;-71
2023/09/04 02:04:31;;;;;;;5.80;3.33;;;15.40;99.90;;;;;;5089152;28;20188;-71
2023/09/04 02:06:58;;;;;;;7.53;3.33;;;15.50;99.90;;;;;;5087935;28;20204;-71
2023/09/04 02:09:24;;;;;;;3.73;3.30;;;15.40;99.90;;;;;;5089564;28;20510;-71
2023/09/04 02:11:50;;;;;;;3.53;3.00;;;15.50;99.90;;;;;;5089474;28;20526;-71
2023/09/04 02:14:15;;;;;;;3.63;3.30;;;15.50;99.90;;;;;;5088293;28;20431;-70
2023/09/04 02:16:41;;;;;;;6.63;2.97;;;15.60;99.90;;;;;;5089754;28;20197;-71
2023/09/04 02:19:06;;;;;;;4.30;3.73;;;15.60;99.90;;;;;;5089546;28;20212;-71
2023/09/04 02:21:32;;;;;;;4.03;2.83;;;15.50;99.90;;;;;;5089451;28;20199;-71
2023/09/04 02:23:58;;;;;;;4.57;2.93;;;15.50;99.90;;;;;;5071514;28;20687;-70
2023/09/04 02:26:24;;;;;;;3.60;3.10;;;15.40;99.90;;;;;;5088426;28;20452;-71
2023/09/04 02:28:49;;;;;;;3.67;3.23;;;15.40;99.90;;;;;;5093892;28;20420;-71
2023/09/04 02:31:15;;;;;;;3.83;3.03;;;15.40;99.90;;;;;;5093463;28;20176;-71
2023/09/04 02:33:40;;;;;;;5.00;3.70;;;15.30;99.90;;;;;;5093587;28;20229;-71
2023/09/04 02:36:06;;;;;;;10.20;4.50;;;15.30;99.90;;;;;;5093032;28;20208;-70
2023/09/04 02:38:32;;;;;;;4.03;3.70;;;15.20;99.90;;;;;;5093208;28;20189;-71
2023/09/04 02:40:57;;;;;;;6.23;4.00;;;15.10;99.90;;;;;;5091643;28;20677;-71
2023/09/04 02:43:23;;;;;;;3.63;3.30;;;15.10;99.90;;;;;;5091390;28;20193;-71
2023/09/04 02:45:48;;;;;;;4.57;3.70;;;15.10;99.90;;;;;;5091309;28;20208;-71
2023/09/04 02:48:15;;;;;;;6.13;4.13;;;15.00;99.90;;;;;;5091347;28;20657;-71
2023/09/04 02:50:40;;;;;;;5.67;3.90;;;14.90;99.90;;;;;;5092689;28;20181;-71
2023/09/04 02:53:06;;;;;;;6.90;3.87;;;14.80;99.90;;;;;;5092670;28;20438;-70
2023/09/04 02:55:31;;;;;;;3.80;3.20;;;14.90;99.90;;;;;;5092431;28;20242;-70
2023/09/04 02:57:57;;;;;;;3.93;3.53;;;14.90;99.90;;;;;;5092413;28;20718;-71
2023/09/04 03:00:23;;;;;;;3.20;2.93;;;14.90;99.90;;;;;;5092098;28;20187;-71
2023/09/04 03:02:50;;;;;;;3.33;3.03;;;14.90;99.90;;;;;;5092276;28;20513;-70
2023/09/04 03:05:16;;;;;;;5.93;3.20;;;14.90;99.90;;;;;;5092087;28;20343;-71
2023/09/04 03:07:41;;;;;;;4.40;4.00;;;14.50;99.90;;;;;;5092133;28;21064;-71
2023/09/04 03:10:10;;;;;;;3.47;3.10;;;14.50;99.90;;;;;;5092165;28;20509;-70
2023/09/04 03:12:36;;;;;;;4.03;3.50;;;14.60;99.90;;;;;;5090519;28;20226;-71
2023/09/04 03:15:04;;;;;;;3.97;3.67;;;14.60;99.90;;;;;;5090706;28;20841;-71
2023/09/04 03:17:31;;;;;;;9.77;3.50;;;14.60;99.90;;;;;;5092082;28;20188;-70
2023/09/04 03:19:58;;;;;;;3.90;3.37;;;14.60;99.90;;;;;;5091724;28;20446;-70
2023/09/04 03:22:25;;;;;;;5.00;3.23;;;14.70;99.90;;;;;;5090324;28;20571;-70
2023/09/04 03:24:52;;;;;;;4.80;4.00;;;14.60;99.90;;;;;;5091648;28;20960;-70
2023/09/04 03:27:18;;;;;;;5.57;3.90;;;14.60;99.90;;;;;;5091533;28;20471;-70
2023/09/04 03:29:43;;;;;;;6.40;3.33;;;14.60;99.90;;;;;;5091659;28;20444;-70
2023/09/04 03:32:09;;;;;;;6.70;4.00;;;14.60;99.90;;;;;;5091511;28;20188;-70
2023/09/04 03:34:36;;;;;;;4.37;3.77;;;14.60;99.90;;;;;;5091418;28;20179;-71
2023/09/04 03:37:01;;;;;;;5.00;3.87;;;14.60;99.90;;;;;;5090013;28;20180;-70
2023/09/04 03:39:27;;;;;;;4.00;3.43;;;14.60;99.90;;;;;;5090121;28;20418;-71
2023/09/04 03:41:53;;;;;;;4.80;4.30;;;14.60;99.90;;;;;;5091256;28;20196;-70
2023/09/04 03:44:18;;;;;;;5.23;4.07;;;14.50;99.90;;;;;;5089811;28;20211;-71
2023/09/04 03:46:44;;;;;;;4.17;3.77;;;14.50;99.90;;;;;;5091099;28;20577;-71
2023/09/04 03:49:09;;;;;;;4.57;3.63;;;14.50;99.90;;;;;;5091324;28;20181;-70
2023/09/04 03:51:35;;;;;;;6.63;3.67;;;14.50;99.90;;;;;;5091398;28;20184;-70
2023/09/04 03:54:03;;;;;;;4.00;3.60;;;14.60;99.90;;;;;;5091070;28;20187;-70
2023/09/04 03:56:30;;;;;;;4.50;3.90;;;14.60;99.90;;;;;;5090927;28;20691;-70
2023/09/04 03:58:56;;;;;;;3.77;3.37;;;14.50;99.90;;;;;;5091038;28;20415;-71
2023/09/04 04:01:22;;;;;;;4.03;3.57;;;14.40;99.90;;;;;;5089390;28;20445;-71
2023/09/04 04:03:48;;;;;;;4.23;3.50;;;14.40;99.90;;;;;;5090984;28;20445;-71
2023/09/04 04:06:14;;;;;;;6.80;3.50;;;14.30;99.90;;;;;;5090879;28;20561;-70
2023/09/04 04:08:40;;;;;;;5.63;4.30;;;14.30;99.90;;;;;;5090774;28;20529;-71
2023/09/04 04:11:06;;;;;;;5.40;3.93;;;14.30;99.90;;;;;;5090804;28;20275;-71
2023/09/04 04:13:32;;;;;;;5.30;4.40;;;14.20;99.90;;;;;;5090687;28;20457;-71
2023/09/04 04:15:59;;;;;;;4.83;4.33;;;14.20;99.90;;;;;;5090562;28;20475;-71
2023/09/04 04:18:26;;;;;;;4.30;3.90;;;14.20;99.90;;;;;;5088265;28;20190;-71
2023/09/04 04:20:52;;;;;;;8.00;4.90;;;14.20;99.90;;;;;;5090045;28;20425;-70
2023/09/04 04:23:18;;;;;;;5.83;4.20;;;14.20;99.90;;;;;;5089698;28;20454;-71
2023/09/04 04:25:43;;;;;;;6.70;4.47;;;14.20;99.90;;;;;;5088212;28;20440;-71
2023/09/04 04:28:09;;;;;;;7.33;4.20;;;14.20;99.90;;;;;;5089616;28;20703;-71
2023/09/04 04:30:35;;;;;;;5.10;4.60;;;14.20;99.90;;;;;;5071462;28;20665;-71
2023/09/04 04:33:02;;;;;;;4.83;4.33;;;14.20;99.90;;;;;;5089601;28;20417;-71
2023/09/04 04:35:27;;;;;;;7.13;4.27;;;14.10;99.90;;;;;;5088223;28;20199;-71
2023/09/04 04:37:53;;;;;;;5.30;4.63;;;14.10;99.90;;;;;;5088128;28;20811;-70
2023/09/04 04:40:23;;;;;;;7.10;4.43;;;14.10;99.90;;;;;;5088026;28;20615;-71
2023/09/04 04:42:49;;;;;;;7.13;4.43;;;14.10;99.90;;;;;;5089499;28;20218;-70
2023/09/04 04:45:15;;;;;;;6.67;4.30;;;14.00;99.90;;;;;;5089359;28;20448;-71
2023/09/04 04:47:41;;;;;;;6.63;4.90;;;14.00;99.90;;;;;;5089334;28;20470;-71
2023/09/04 04:50:09;;;;;;;4.90;4.40;;;14.00;99.90;;;;;;5089169;28;20428;-71
2023/09/04 04:52:34;;;;;;;6.40;4.63;;;14.00;99.90;;;;;;5089334;28;20424;-70
2023/09/04 04:55:00;;;;;;;5.50;4.67;;;14.00;99.90;;;;;;5088965;28;21284;-71
2023/09/04 04:57:26;;;;;;;5.20;4.70;;;14.00;99.90;;;;;;5089204;28;20413;-70
2023/09/04 04:59:51;;;;;;;5.83;4.60;;;14.00;99.90;;;;;;5089247;28;20216;-71
2023/09/04 05:02:17;;;;;;;6.30;4.80;;;14.00;99.90;;;;;;5087705;28;20179;-70
2023/09/04 05:04:46;;;;;;;4.83;4.33;;;14.00;99.90;;;;;;5089080;28;20569;-70
2023/09/04 05:07:12;;;;;;;8.53;4.80;;;13.90;99.90;;;;;;5089000;28;20585;-70
2023/09/04 05:09:41;;;;;;;5.77;4.30;;;13.90;99.90;;;;;;5089212;28;20442;-71
2023/09/04 05:12:07;;;;;;;6.00;4.77;;;14.00;99.90;;;;;;5089217;28;20867;-71
2023/09/04 05:14:34;;;;;;;4.60;4.17;;;14.00;99.90;;;;;;5087835;28;20578;-71
2023/09/04 05:16:59;;;;;;;6.67;4.67;;;14.00;99.90;;;;;;5089074;28;20427;-71
2023/09/04 05:19:25;;;;;;;9.83;5.23;;;14.10;99.90;;;;;;5089232;28;20421;-70
2023/09/04 05:21:51;;;;;;;5.80;4.63;;;14.00;99.90;;;;;;5088903;28;20184;-71
2023/09/04 05:24:16;;;;;;;5.00;4.50;;;14.00;99.90;;;;;;5070702;28;20191;-71
2023/09/04 05:26:42;;;;;;;5.93;5.17;;;14.10;99.90;;;;;;5087627;28;20989;-70
2023/09/04 05:29:08;;;;;;;5.67;4.30;;;14.10;99.90;;;;;;5089072;28;20544;-71
2023/09/04 05:31:33;;;;;;;7.20;5.23;;;14.00;99.90;;;;;;5089004;28;20175;-71
2023/09/04 05:33:59;;;;;;;5.63;5.10;;;13.90;99.90;;;;;;5089106;28;20548;-71
2023/09/04 05:36:24;;;;;;;6.00;5.33;;;13.90;99.90;;;;;;5089229;28;20214;-71
2023/09/04 05:38:50;;;;;;;5.20;4.77;;;14.00;99.90;;;;;;5089310;28;20654;-71
2023/09/04 05:41:16;;;;;;;6.30;5.70;;;14.10;99.90;;;;;;5087758;28;20265;-71
2023/09/04 05:43:41;;;;;;;9.40;5.87;;;14.30;99.90;;;;;;5089072;28;20647;-71
2023/09/04 05:46:07;;;;;;;6.00;5.40;;;14.40;99.90;;;;;;5089046;28;20506;-71
2023/09/04 05:48:36;;;;;;;8.53;6.17;;;14.60;99.90;;;;;;5089495;28;20219;-71
2023/09/04 05:51:02;;;;;;;10.93;5.40;;;14.80;99.90;;;;;;5089180;28;20548;-71
2023/09/04 05:53:29;;;;;;;7.13;5.87;;;14.90;99.90;;;;;;5089016;28;20422;-70
2023/09/04 05:56:05;;;;;;;11.50;5.43;;;15.00;99.90;;;;;;5088626;28;20519;-69
2023/09/04 05:58:31;;;;;;;28.93;25.80;;;15.00;99.90;;;;;;5088787;28;20418;-70
2023/09/04 06:00:56;;;;;;;15.30;13.33;;;15.10;99.90;;;;;;5088255;28;20414;-70
2023/09/04 06:03:23;;;;;;;10.77;6.40;;;15.10;99.90;;;;;;5086974;28;20262;-71
2023/09/04 06:05:49;;;;;;;6.50;5.37;;;15.20;99.90;;;;;;5088436;28;20200;-70
2023/09/04 06:08:15;;;;;;;6.70;6.00;;;15.40;99.90;;;;;;5087102;28;20459;-71
2023/09/04 06:10:41;;;;;;;6.33;5.73;;;15.50;99.90;;;;;;5087170;28;20180;-70
2023/09/04 06:13:06;;;;;;;6.53;5.80;;;15.50;99.90;;;;;;5088837;28;20411;-71
2023/09/04 06:15:32;;;;;;;7.70;5.57;;;15.80;99.90;;;;;;5088577;28;20210;-70
2023/09/04 06:17:58;;;;;;;11.37;5.87;;;16.00;99.90;;;;;;5087615;28;20181;-71
2023/09/04 06:20:23;;;;;;;6.67;4.63;;;16.20;99.90;;;;;;5088843;28;20258;-71
2023/09/04 06:22:49;;;;;;;6.47;5.23;;;16.40;99.90;;;;;;5088906;28;20541;-72
2023/09/04 06:25:14;;;;;;;7.23;5.10;;;16.60;99.90;;;;;;5088848;28;20209;-72
2023/09/04 06:27:40;;;;;;;11.60;6.27;;;16.70;99.90;;;;;;5070850;28;20238;-72
2023/09/04 06:30:07;;;;;;;6.80;4.87;;;16.90;99.90;;;;;;5088943;28;20238;-72
2023/09/04 06:32:32;;;;;;;8.30;5.17;;;17.10;99.90;;;;;;5088806;28;20207;-72
2023/09/04 06:34:58;;;;;;;12.27;4.27;;;17.10;99.90;;;;;;5087566;28;20443;-71
2023/09/04 06:37:25;;;;;;;6.50;5.10;;;17.30;99.90;;;;;;5088697;28;20209;-71
2023/09/04 06:39:50;;;;;;;13.30;4.30;;;17.30;99.90;;;;;;5087494;28;20184;-71
2023/09/04 06:42:16;;;;;;;6.20;4.43;;;17.30;99.90;;;;;;5087249;28;20439;-71
2023/09/04 06:44:41;;;;;;;7.07;4.40;;;17.30;99.90;;;;;;5088613;28;20880;-72
2023/09/04 06:47:07;;;;;;;8.10;4.67;;;17.30;99.90;;;;;;5088349;28;20208;-71
2023/09/04 06:49:33;;;;;;;6.97;4.07;;;17.50;99.90;;;;;;5087318;28;20665;-70
2023/09/04 06:51:58;;;;;;;5.93;4.63;;;17.50;99.90;;;;;;5088260;28;20213;-70
2023/09/04 06:54:24;;;;;;;8.00;4.60;;;17.40;99.90;;;;;;5088059;28;20191;-70
2023/09/04 06:56:49;;;;;;;11.27;4.63;;;17.30;99.90;;;;;;5088218;28;20653;-71
2023/09/04 06:59:15;;;;;;;7.00;4.27;;;17.50;99.90;;;;;;5087672;28;20191;-71
2023/09/04 07:01:41;;;;;;;11.50;4.70;;;17.40;99.90;;;;;;5087830;28;20224;-71
2023/09/04 07:04:07;;;;;;;9.50;5.47;;;17.60;99.90;;;;;;5088142;28;20411;-72
2023/09/04 07:06:32;;;;;;;8.13;4.97;;;17.60;99.90;;;;;;5087917;28;20204;-70
2023/09/04 07:08:58;;;;;;;9.73;4.30;;;17.60;99.90;;;;;;5087993;28;20192;-71
2023/09/04 07:11:24;;;;;;;5.43;4.23;;;17.70;99.90;;;;;;5087938;28;20176;-71
2023/09/04 07:13:49;;;;;;;4.80;3.93;;;17.80;99.90;;;;;;5090284;28;20573;-71
2023/09/04 07:16:16;;;;;;;5.70;4.03;;;17.80;99.90;;;;;;5089876;28;20206;-70
2023/09/04 07:18:41;;;;;;;5.03;4.27;;;17.90;99.90;;;;;;5090022;28;20601;-70
2023/09/04 07:21:07;;;;;;;4.90;4.40;;;18.00;99.90;;;;;;5091562;28;20909;-70
2023/09/04 07:23:32;;;;;;;6.90;3.60;;;18.10;99.90;;;;;;5091080;28;20182;-71
2023/09/04 07:25:58;;;;;;;6.50;3.63;;;18.30;99.90;;;;;;5091171;28;20230;-71
2023/09/04 07:28:24;;;;;;;5.90;4.17;;;18.30;99.90;;;;;;5072875;28;20275;-71
2023/09/04 07:30:54;;;;;;;6.93;3.40;;;18.40;99.90;;;;;;5090837;28;20205;-73
2023/09/04 07:33:19;;;;;;;5.60;4.23;;;18.50;99.90;;;;;;5090795;28;20243;-71
2023/09/04 07:35:54;;;;;;;4.47;4.07;;;18.50;99.90;;;;;;5089273;28;20436;-71
2023/09/04 07:38:20;;;;;;;4.30;3.53;;;18.60;99.90;;;;;;5090673;28;20216;-71
2023/09/04 07:40:45;;;;;;;6.30;4.03;;;18.70;99.90;;;;;;5089536;28;20444;-72
2023/09/04 07:43:11;;;;;;;15.57;4.50;;;18.80;99.90;;;;;;5090536;28;20194;-72
2023/09/04 07:45:36;;;;;;;7.47;4.30;;;18.80;99.90;;;;;;5090255;28;20206;-72
2023/09/04 07:48:03;;;;;;;11.00;4.90;;;18.80;99.90;;;;;;5088930;28;20300;-72
2023/09/04 07:50:29;;;;;;;5.60;3.90;;;18.80;99.90;;;;;;5088562;28;20186;-72
2023/09/04 07:52:55;;;;;;;3.43;3.13;;;18.90;99.90;;;;;;5089866;28;20875;-72
2023/09/04 07:55:21;;;;;;;3.87;3.43;;;19.00;99.90;;;;;;5089667;28;20232;-72
2023/09/04 07:57:46;;;;;;;9.30;3.83;;;19.20;99.90;;;;;;5089822;28;20917;-72
2023/09/04 08:00:16;;;;;;;6.27;3.90;;;19.30;99.90;;;;;;5089714;28;20182;-71
2023/09/04 08:02:43;;;;;;;4.63;3.97;;;19.50;99.90;;;;;;5089777;28;20189;-71
2023/09/04 08:05:08;;;;;;;4.33;3.70;;;19.60;99.90;;;;;;5088064;28;20501;-72
2023/09/04 08:07:34;;;;;;;6.00;3.60;;;19.70;99.90;;;;;;5089413;28;20468;-72
2023/09/04 08:10:00;;;;;;;6.13;3.70;;;19.80;99.90;;;;;;5071289;28;20990;-71
2023/09/04 08:12:25;;;;;;;4.97;3.47;;;19.90;99.90;;;;;;5089369;28;20194;-70
2023/09/04 08:14:51;;;;;;;5.20;3.43;;;20.10;99.90;;;;;;5089339;28;20174;-71
2023/09/04 08:17:16;;;;;;;3.30;3.00;;;20.20;99.90;;;;;;5088755;28;20652;-72
2023/09/04 08:19:42;;;;;;;5.30;3.50;;;20.30;99.90;;;;;;5089182;28;20646;-72
2023/09/04 08:22:07;;;;;;;3.20;2.90;;;20.50;99.90;;;;;;5089460;28;20202;-73
2023/09/04 08:24:33;;;;;;;4.30;3.87;;;20.60;99.90;;;;;;5087282;28;20186;-72
2023/09/04 08:26:58;;;;;;;6.90;3.53;;;20.70;99.90;;;;;;5089269;28;20205;-72
2023/09/04 08:29:24;;;;;;;3.47;3.17;;;20.90;99.90;;;;;;5089031;28;20251;-72
2023/09/04 08:31:50;;;;;;;3.90;3.50;;;21.00;99.90;;;;;;5087489;28;20372;-71
2023/09/04 08:34:15;;;;;;;3.63;3.30;;;21.20;99.90;;;;;;5089142;28;20178;-72
2023/09/04 08:36:42;;;;;;;3.60;3.20;;;21.30;99.90;;;;;;5087507;28;20195;-72
2023/09/04 08:39:07;;;;;;;3.23;3.00;;;21.50;99.90;;;;;;5089113;28;20225;-72
2023/09/04 08:41:34;;;;;;;2.90;2.70;;;21.60;99.90;;;;;;5087563;28;20423;-73
2023/09/04 08:44:01;;;;;;;5.00;3.53;;;21.70;99.90;;;;;;5088797;28;20205;-71
2023/09/04 08:46:29;;;;;;;6.93;2.80;;;21.80;99.90;;;;;;5088607;28;20440;-71
2023/09/04 08:49:00;;;;;;;2.97;2.67;;;22.00;99.90;;;;;;5087261;28;20465;-72
2023/09/04 08:51:26;;;;;;;3.43;2.43;;;22.20;99.90;;;;;;5088630;28;20401;-71
2023/09/04 08:53:52;;;;;;;3.77;2.67;;;22.30;99.90;;;;;;5087046;28;20417;-71
2023/09/04 08:56:18;;;;;;;5.77;3.40;;;22.40;99.90;;;;;;5088435;28;20455;-71
2023/09/04 08:58:44;;;;;;;3.70;3.33;;;22.60;99.90;;;;;;5087276;28;20253;-71
2023/09/04 09:01:13;;;;;;;3.13;2.83;;;22.70;99.90;;;;;;5087162;28;20431;-71
2023/09/04 09:03:40;;;;;;;4.57;3.07;;;22.90;99.90;;;;;;5088523;28;20182;-72
2023/09/04 09:06:06;;;;;;;2.97;2.77;;;23.00;99.90;;;;;;5088247;28;20476;-72
2023/09/04 09:08:33;;;;;;;6.00;3.20;;;23.10;99.90;;;;;;5088557;28;20476;-72
2023/09/04 09:11:01;;;;;;;10.50;3.83;;;23.30;99.90;;;;;;5088692;28;20406;-73
2023/09/04 09:13:27;;;;;;;3.70;2.90;;;23.20;99.90;;;;;;5086733;28;20739;-72
2023/09/04 09:15:54;;;;;;;8.43;3.47;;;23.40;99.90;;;;;;5088423;28;20511;-71
2023/09/04 09:18:40;;;;;;;3.97;3.57;;;23.60;99.90;;;;;;5088339;28;20265;-72
2023/09/04 09:21:22;;;;;;;3.60;3.13;;;23.80;99.90;;;;;;5088519;28;20422;-71
2023/09/04 09:24:02;;;;;;;7.87;3.07;;;24.30;99.90;;;;;;5088120;28;20902;-72
2023/09/04 09:26:28;;;;;;;5.80;2.90;;;24.40;99.90;;;;;;5088035;28;20674;-73
2023/09/04 09:28:54;;;;;;;3.40;3.07;;;24.50;99.90;;;;;;5086802;28;20586;-72
2023/09/04 09:31:21;;;;;;;3.37;3.10;;;24.50;99.90;;;;;;5086997;28;20407;-73
2023/09/04 09:33:48;;;;;;;6.33;3.77;;;24.70;99.90;;;;;;5070466;28;20424;-73
2023/09/04 09:36:14;;;;;;;28.27;3.20;;;25.10;99.90;;;;;;5052271;28;20531;-71
2023/09/04 09:38:45;;;;;;;3.00;2.73;;;25.40;99.90;;;;;;5088530;28;20896;-72
2023/09/04 09:41:15;;;;;;;2.87;2.50;;;26.20;99.90;;;;;;5087221;28;20543;-71
2023/09/04 09:43:41;;;;;;;3.07;2.40;;;26.40;99.90;;;;;;5088646;28;20425;-71
2023/09/04 09:46:08;;;;;;;8.17;2.80;;;27.10;99.90;;;;;;5089145;28;20432;-71
2023/09/04 09:48:38;;;;;;;4.90;2.87;;;27.40;99.90;;;;;;5087957;28;20835;-71
2023/09/04 09:51:06;;;;;;;3.10;2.80;;;27.50;99.90;;;;;;5089104;28;20923;-71
2023/09/04 09:53:46;;;;;;;2.63;2.43;;;27.90;99.90;;;;;;5087515;28;20428;-72
2023/09/04 09:56:13;;;;;;;4.80;2.43;;;28.10;99.00;;;;;;5088606;28;20456;-70
2023/09/04 09:58:41;;;;;;;3.33;3.03;;;28.20;99.90;;;;;;5087397;28;20443;-72
2023/09/04 10:01:08;;;;;;;3.30;2.93;;;28.30;99.90;;;;;;5088765;28;20481;-71
2023/09/04 10:03:38;;;;;;;5.13;3.00;;;28.30;99.90;;;;;;5087017;28;20893;-72
2023/09/04 10:06:05;;;;;;;3.43;3.13;;;28.70;99.90;;;;;;5088356;28;20798;-71
2023/09/04 10:08:43;;;;;;;2.70;2.50;;;28.90;99.90;;;;;;5086958;28;20482;-71
2023/09/04 10:11:12;;;;;;;3.87;3.00;;;29.40;99.90;;;;;;5086899;28;20836;-73
2023/09/04 10:13:43;;;;;;;2.50;2.30;;;29.20;99.90;;;;;;5087753;28;20409;-71
2023/09/04 10:16:15;;;;;;;3.20;2.67;;;28.80;99.90;;;;;;5086396;28;20436;-72
2023/09/04 10:18:43;;;;;;;2.50;2.30;;;29.30;99.90;;;;;;5086403;28;20435;-72
2023/09/04 10:21:16;;;;;;;2.20;2.00;;;29.20;99.90;;;;;;5087944;28;20451;-70
2023/09/04 10:23:49;;;;;;;3.70;2.63;;;29.60;99.90;;;;;;5088243;28;20412;-72
2023/09/04 10:26:41;;;;;;;7.90;3.20;;;29.70;93.30;;;;;;5087904;28;20443;-71
2023/09/04 10:29:14;;;;;;;3.57;3.20;;;30.00;94.00;;;;;;5087931;28;20519;-73
2023/09/04 10:31:40;;;;;;;4.03;2.40;;;30.40;94.30;;;;;;5088019;28;20414;-72
2023/09/04 10:34:06;;;;;;;2.60;2.30;;;30.50;95.00;;;;;;5087286;28;21065;-71
2023/09/04 10:36:32;;;;;;;6.87;2.80;;;30.70;93.40;;;;;;5087262;28;20519;-73
2023/09/04 10:39:00;;;;;;;4.17;2.50;;;30.90;92.40;;;;;;5085903;28;20855;-72
2023/09/04 10:41:31;;;;;;;3.50;2.40;;;30.80;91.20;;;;;;5085879;28;20203;-72
2023/09/04 10:43:56;;;;;;;2.60;2.40;;;30.80;90.10;;;;;;5085962;28;20466;-71
2023/09/04 10:46:23;;;;;;;2.20;2.00;;;30.70;89.80;;;;;;5087608;28;20429;-72
2023/09/04 10:48:53;;;;;;;3.30;2.53;;;30.80;96.40;;;;;;5071949;28;20697;-72
2023/09/04 10:51:25;;;;;;;3.30;2.30;;;30.90;99.10;;;;;;5092066;28;20409;-71
2023/09/04 10:53:50;;;;;;;2.90;2.67;;;31.00;95.30;;;;;;5091544;28;20424;-72
2023/09/04 10:56:16;;;;;;;2.60;2.40;;;31.30;92.10;;;;;;5091608;28;20459;-71
2023/09/04 10:59:03;;;;;;;2.63;2.43;;;31.30;85.30;;;;;;5091827;28;20962;-70
2023/09/04 11:01:34;;;;;;;3.27;2.47;;;31.40;87.80;;;;;;5091909;28;20281;-70
2023/09/04 11:04:04;;;;;;;3.93;2.33;;;31.40;85.90;;;;;;5090805;28;20523;-70
2023/09/04 11:06:33;;;;;;;2.30;2.10;;;31.20;89.40;;;;;;5092038;28;20451;-71
2023/09/04 11:09:01;;;;;;;2.60;2.40;;;31.10;86.50;;;;;;5073656;28;20476;-71
2023/09/04 11:11:27;;;;;;;4.03;2.13;;;31.30;84.30;;;;;;5092119;28;20943;-70
2023/09/04 11:14:01;;;;;;;2.63;2.20;;;31.40;82.00;;;;;;5092126;28;20443;-72
2023/09/04 11:16:32;;;;;;;2.50;2.30;;;31.50;83.40;;;;;;5091821;28;20447;-70
2023/09/04 11:19:09;;;;;;;2.50;2.30;;;31.40;81.90;;;;;;5091680;28;20425;-69
2023/09/04 11:21:36;;;;;;;9.53;2.40;;;31.40;80.60;;;;;;5091514;28;20431;-70
2023/09/04 11:24:04;;;;;;;2.63;2.37;;;31.60;79.40;;;;;;5091485;28;20435;-71
2023/09/04 11:26:30;;;;;;;1.87;1.73;;;31.30;76.00;;;;;;5091328;28;20454;-71
2023/09/04 11:28:57;;;;;;;2.80;2.27;;;31.30;77.20;;;;;;5091071;28;20823;-72
2023/09/04 11:31:26;;;;;;;2.60;2.40;;;31.50;78.30;;;;;;5091078;28;20427;-72
2023/09/04 11:33:52;;;;;;;2.43;1.63;;;31.30;78.90;;;;;;5090654;28;20544;-71
2023/09/04 11:36:18;;;;;;;2.50;2.30;;;31.40;78.20;;;;;;5090615;28;21305;-71
2023/09/04 11:38:43;;;;;;;2.10;1.90;;;31.40;85.40;;;;;;5090771;28;20431;-72
2023/09/04 11:41:17;;;;;;;2.63;2.40;;;31.40;75.40;;;;;;5090469;28;20186;-72
2023/09/04 11:43:42;;;;;;;2.77;2.23;;;31.30;75.90;;;;;;5090263;28;20658;-71
2023/09/04 11:46:10;;;;;;;2.63;2.43;;;31.10;75.90;;;;;;5090062;28;20493;-72
2023/09/04 11:48:36;;;;;;;3.77;2.40;;;31.40;78.20;;;;;;5090426;28;20910;-71
2023/09/04 11:51:04;;;;;;;4.20;2.50;;;31.50;78.60;;;;;;5090055;28;20429;-71
2023/09/04 11:53:30;;;;;;;4.23;2.43;;;31.60;77.50;;;;;;5088558;28;20182;-70
2023/09/04 11:55:57;;;;;;;4.60;2.53;;;31.60;76.20;;;;;;5088143;28;20584;-72
2023/09/04 11:58:22;;;;;;;4.33;2.77;;;31.70;78.00;;;;;;5089927;28;20880;-70
2023/09/04 12:00:49;;;;;;;2.57;2.37;;;31.70;78.50;;;;;;5088627;28;20554;-72
2023/09/04 12:03:15;;;;;;;2.53;2.00;;;31.50;78.10;;;;;;5089722;28;20499;-71
2023/09/04 12:05:41;;;;;;;3.43;2.67;;;31.60;79.20;;;;;;5088304;28;20214;-72
2023/09/04 12:08:07;;;;;;;2.30;2.13;;;31.60;80.20;;;;;;5089588;28;20225;-71
2023/09/04 12:10:34;;;;;;;3.53;2.40;;;31.30;79.30;;;;;;5089653;28;20451;-71
2023/09/04 12:13:01;;;;;;;2.50;2.30;;;31.50;78.80;;;;;;5088260;28;20185;-71
2023/09/04 12:15:33;;;;;;;3.00;2.40;;;31.80;78.70;;;;;;5088020;28;20499;-70
2023/09/04 12:18:03;;;;;;;2.87;2.57;;;31.90;79.30;;;;;;5089482;28;20773;-72
2023/09/04 12:20:44;;;;;;;3.50;2.77;;;31.70;81.30;;;;;;5089722;28;21058;-71
2023/09/04 12:23:10;;;;;;;2.93;2.63;;;31.80;79.60;;;;;;5088073;28;20605;-71
2023/09/04 12:25:42;;;;;;;2.87;2.67;;;31.70;80.90;;;;;;5089254;28;20452;-71
2023/09/04 12:28:09;;;;;;;5.20;3.07;;;31.50;81.50;;;;;;5089339;28;20473;-71
2023/09/04 12:30:45;;;;;;;3.30;3.00;;;31.50;80.70;;;;;;5089302;28;20843;-70
2023/09/04 12:33:18;;;;;;;3.97;2.53;;;31.70;80.90;;;;;;5087630;28;20808;-72
2023/09/04 12:35:53;;;;;;;4.70;3.00;;;31.60;81.60;;;;;;5088926;28;20444;-71
2023/09/04 12:38:19;;;;;;;3.13;2.90;;;31.50;82.40;;;;;;5088932;28;20835;-72
2023/09/04 12:40:44;;;;;;;3.20;3.00;;;31.40;82.40;;;;;;5087125;28;20425;-71
2023/09/04 12:43:10;;;;;;;5.83;3.70;;;31.40;84.00;;;;;;5088827;28;20277;-71
2023/09/04 12:45:35;;;;;;;3.23;2.83;;;31.40;72.80;;;;;;5088650;28;20202;-71